<?xml version='1.0' encoding='UTF-8'?><gpx version="1.1" creator="JPX - https://github.com/jenetics/jpx" xmlns="http://www.topografix.com/GPX/1/1"><trk><trkseg><trkpt lat="45.88324233915551" lon="11.602254019650308"><ele>1049.0</ele><time>2026-04-10T05:37:34.005Z</time></trkpt><trkpt lat="45.883265377305264" lon="11.602140676148348"><ele>1049.0</ele><time>2026-04-10T05:38:22.003Z</time></trkpt><trkpt lat="45.88321714003378" lon="11.602067071394375"><ele>1049.0</ele><time>2026-04-10T05:38:26.002Z</time></trkpt><trkpt lat="45.883154456324476" lon="11.602033675793432"><ele>1049.0</ele><time>2026-04-10T05:38:31.002Z</time></trkpt><trkpt lat="45.883091677644046" lon="11.602006088226188"><ele>1049.0</ele><time>2026-04-10T05:38:36.002Z</time></trkpt><trkpt lat="45.88302896861391" lon="11.602032086974944"><ele>1049.0</ele><time>2026-04-10T05:38:40.002Z</time></trkpt><trkpt lat="45.88296014185932" lon="11.602039380247248"><ele>1049.0</ele><time>2026-04-10T05:38:44.002Z</time></trkpt><trkpt lat="45.88290250632297" lon="11.6019911591685"><ele>1050.0</ele><time>2026-04-10T05:38:48.004Z</time></trkpt><trkpt lat="45.88284244266664" lon="11.601958458495965"><ele>1051.0</ele><time>2026-04-10T05:38:53.004Z</time></trkpt><trkpt lat="45.88279800553087" lon="11.601890822040774"><ele>1052.0</ele><time>2026-04-10T05:38:59.004Z</time></trkpt><trkpt lat="45.882736350936106" lon="11.601858824183191"><ele>1053.0</ele><time>2026-04-10T05:39:05.004Z</time></trkpt><trkpt lat="45.88265983830211" lon="11.601850123336407"><ele>1054.0</ele><time>2026-04-10T05:39:18.004Z</time></trkpt><trkpt lat="45.882587105279136" lon="11.6018106515666"><ele>1055.0</ele><time>2026-04-10T05:39:26.004Z</time></trkpt><trkpt lat="45.88252013107845" lon="11.601809253320837"><ele>1056.0</ele><time>2026-04-10T05:39:31.004Z</time></trkpt><trkpt lat="45.88244274134216" lon="11.60182328325437"><ele>1056.4285714285713</ele><time>2026-04-10T05:39:36.004Z</time></trkpt><trkpt lat="45.88237636558333" lon="11.601796408258677"><ele>1056.857142857143</ele><time>2026-04-10T05:39:40.004Z</time></trkpt><trkpt lat="45.88229900390529" lon="11.601803224150144"><ele>1057.2857142857142</ele><time>2026-04-10T05:39:45.004Z</time></trkpt><trkpt lat="45.882234064566106" lon="11.601811761626397"><ele>1057.7142857142858</ele><time>2026-04-10T05:39:49.004Z</time></trkpt><trkpt lat="45.88215765846346" lon="11.601813121089144"><ele>1058.142857142857</ele><time>2026-04-10T05:39:54.004Z</time></trkpt><trkpt lat="45.88208769150549" lon="11.601810556756972"><ele>1058.5714285714284</ele><time>2026-04-10T05:39:59.004Z</time></trkpt><trkpt lat="45.882017066152265" lon="11.601810098823274"><ele>1059.0</ele><time>2026-04-10T05:40:04.004Z</time></trkpt><trkpt lat="45.881946723099155" lon="11.601806286732092"><ele>1059.0</ele><time>2026-04-10T05:40:09.004Z</time></trkpt><trkpt lat="45.881879150230034" lon="11.601816126313455"><ele>1059.0</ele><time>2026-04-10T05:40:14.004Z</time></trkpt><trkpt lat="45.88180642599315" lon="11.601812560894192"><ele>1059.0</ele><time>2026-04-10T05:40:19.004Z</time></trkpt><trkpt lat="45.88174191828698" lon="11.601799728405592"><ele>1059.0</ele><time>2026-04-10T05:40:25.003Z</time></trkpt><trkpt lat="45.88167828212394" lon="11.601780725458001"><ele>1059.0</ele><time>2026-04-10T05:40:30.003Z</time></trkpt><trkpt lat="45.88160188364379" lon="11.601762457160566"><ele>1059.0</ele><time>2026-04-10T05:40:35.003Z</time></trkpt><trkpt lat="45.88152803929494" lon="11.601735197645644"><ele>1059.0</ele><time>2026-04-10T05:40:41.003Z</time></trkpt><trkpt lat="45.88146658162071" lon="11.601686625964359"><ele>1059.857142857143</ele><time>2026-04-10T05:40:47.003Z</time></trkpt><trkpt lat="45.8814005126301" lon="11.601657568289548"><ele>1060.7142857142856</ele><time>2026-04-10T05:40:52.003Z</time></trkpt><trkpt lat="45.88133678098468" lon="11.601617985393496"><ele>1061.5714285714284</ele><time>2026-04-10T05:40:57.004Z</time></trkpt><trkpt lat="45.8812715983579" lon="11.601557494556538"><ele>1062.4285714285713</ele><time>2026-04-10T05:41:02.004Z</time></trkpt><trkpt lat="45.88121008290007" lon="11.601499127526973"><ele>1063.2857142857142</ele><time>2026-04-10T05:41:08.004Z</time></trkpt><trkpt lat="45.88116249083739" lon="11.601425626472222"><ele>1064.142857142857</ele><time>2026-04-10T05:41:13.004Z</time></trkpt><trkpt lat="45.88110504973152" lon="11.601362217150143"><ele>1065.0</ele><time>2026-04-10T05:41:18.004Z</time></trkpt><trkpt lat="45.881057892639895" lon="11.60130202160377"><ele>1065.0</ele><time>2026-04-10T05:41:23.004Z</time></trkpt><trkpt lat="45.88101864422133" lon="11.601230836903495"><ele>1065.0</ele><time>2026-04-10T05:41:28.003Z</time></trkpt><trkpt lat="45.88097308869515" lon="11.601164526689157"><ele>1065.0</ele><time>2026-04-10T05:41:33.003Z</time></trkpt><trkpt lat="45.88093065499418" lon="11.601091691600564"><ele>1065.0</ele><time>2026-04-10T05:41:38.003Z</time></trkpt><trkpt lat="45.880876080157485" lon="11.601018730340153"><ele>1065.0</ele><time>2026-04-10T05:41:43.003Z</time></trkpt><trkpt lat="45.88082363741407" lon="11.600941180677001"><ele>1065.0</ele><time>2026-04-10T05:41:48.003Z</time></trkpt><trkpt lat="45.88077479970845" lon="11.600883940009997"><ele>1065.0</ele><time>2026-04-10T05:41:53.003Z</time></trkpt><trkpt lat="45.88072475191728" lon="11.600817876904483"><ele>1066.7142857142858</ele><time>2026-04-10T05:41:58.003Z</time></trkpt><trkpt lat="45.88066057788247" lon="11.600817485491508"><ele>1068.4285714285713</ele><time>2026-04-10T05:42:04.003Z</time></trkpt><trkpt lat="45.88058943710988" lon="11.60081419700173"><ele>1070.142857142857</ele><time>2026-04-10T05:42:09.003Z</time></trkpt><trkpt lat="45.88052383223821" lon="11.600830790302172"><ele>1071.857142857143</ele><time>2026-04-10T05:42:15.003Z</time></trkpt><trkpt lat="45.88044116692607" lon="11.6008383989866"><ele>1073.5714285714287</ele><time>2026-04-10T05:42:20.003Z</time></trkpt><trkpt lat="45.88037002927926" lon="11.600808237291997"><ele>1075.2857142857142</ele><time>2026-04-10T05:42:25.003Z</time></trkpt><trkpt lat="45.88030329740278" lon="11.60079578902494"><ele>1077.0</ele><time>2026-04-10T05:42:30.003Z</time></trkpt><trkpt lat="45.88023653238222" lon="11.600765106512245"><ele>1077.0</ele><time>2026-04-10T05:42:35.003Z</time></trkpt><trkpt lat="45.88017293894341" lon="11.600722082281825"><ele>1077.0</ele><time>2026-04-10T05:42:41.003Z</time></trkpt><trkpt lat="45.88011184183475" lon="11.600691843518348"><ele>1077.0</ele><time>2026-04-10T05:42:45.003Z</time></trkpt><trkpt lat="45.880039041582236" lon="11.600693708740412"><ele>1077.0</ele><time>2026-04-10T05:42:50.003Z</time></trkpt><trkpt lat="45.87996178567692" lon="11.600690075783772"><ele>1077.0</ele><time>2026-04-10T05:42:56.003Z</time></trkpt><trkpt lat="45.87989027810714" lon="11.60069945607357"><ele>1077.0</ele><time>2026-04-10T05:43:01.004Z</time></trkpt><trkpt lat="45.87980856117031" lon="11.60072074624605"><ele>1077.0</ele><time>2026-04-10T05:43:06.004Z</time></trkpt><trkpt lat="45.87974619182534" lon="11.60075810341925"><ele>1077.8333333333333</ele><time>2026-04-10T05:43:10.005Z</time></trkpt><trkpt lat="45.8796784177735" lon="11.600924130131947"><ele>1078.6666666666667</ele><time>2026-04-10T05:43:39.005Z</time></trkpt><trkpt lat="45.87962101733542" lon="11.60085602363074"><ele>1079.5</ele><time>2026-04-10T05:43:47.005Z</time></trkpt><trkpt lat="45.87958829182704" lon="11.6007784033897"><ele>1080.3333333333335</ele><time>2026-04-10T05:43:57.005Z</time></trkpt><trkpt lat="45.87952442467719" lon="11.600799696360315"><ele>1081.1666666666667</ele><time>2026-04-10T05:44:02.005Z</time></trkpt><trkpt lat="45.87944661802227" lon="11.600762782112747"><ele>1082.0</ele><time>2026-04-10T05:44:06.005Z</time></trkpt><trkpt lat="45.87938238651635" lon="11.600761950592762"><ele>1082.0000000000002</ele><time>2026-04-10T05:44:10.005Z</time></trkpt><trkpt lat="45.87931690202994" lon="11.60074950083988"><ele>1082.0</ele><time>2026-04-10T05:44:15.004Z</time></trkpt><trkpt lat="45.8792429727074" lon="11.600713098864121"><ele>1082.0</ele><time>2026-04-10T05:44:21.004Z</time></trkpt><trkpt lat="45.87917853639698" lon="11.60068999554745"><ele>1082.0</ele><time>2026-04-10T05:44:26.004Z</time></trkpt><trkpt lat="45.87909960456693" lon="11.600663259986733"><ele>1082.0</ele><time>2026-04-10T05:44:33.004Z</time></trkpt><trkpt lat="45.8790366165785" lon="11.600629774407656"><ele>1082.0000000000002</ele><time>2026-04-10T05:44:39.004Z</time></trkpt><trkpt lat="45.87896721249362" lon="11.600586027407417"><ele>1082.0</ele><time>2026-04-10T05:44:48.004Z</time></trkpt><trkpt lat="45.8789000732404" lon="11.600547076327338"><ele>1082.2857142857144</ele><time>2026-04-10T05:44:56.004Z</time></trkpt><trkpt lat="45.878845699395974" lon="11.600473030752427"><ele>1082.5714285714287</ele><time>2026-04-10T05:45:03.004Z</time></trkpt><trkpt lat="45.87877508167711" lon="11.600437494910633"><ele>1082.857142857143</ele><time>2026-04-10T05:45:09.004Z</time></trkpt><trkpt lat="45.87871608625342" lon="11.60038532398755"><ele>1083.1428571428573</ele><time>2026-04-10T05:45:14.005Z</time></trkpt><trkpt lat="45.87865249533715" lon="11.60036655235866"><ele>1083.4285714285716</ele><time>2026-04-10T05:45:20.005Z</time></trkpt><trkpt lat="45.87858191209583" lon="11.600338632469642"><ele>1083.7142857142858</ele><time>2026-04-10T05:45:26.005Z</time></trkpt><trkpt lat="45.87852765804692" lon="11.600285533271864"><ele>1084.0</ele><time>2026-04-10T05:45:34.005Z</time></trkpt><trkpt lat="45.87845864080578" lon="11.600264699201405"><ele>1085.7142857142858</ele><time>2026-04-10T05:45:39.005Z</time></trkpt><trkpt lat="45.878388538430926" lon="11.600214698304914"><ele>1087.4285714285716</ele><time>2026-04-10T05:45:48.005Z</time></trkpt><trkpt lat="45.87830959780182" lon="11.600193729122404"><ele>1089.1428571428573</ele><time>2026-04-10T05:46:00.004Z</time></trkpt><trkpt lat="45.87824365000278" lon="11.600214531134556"><ele>1090.857142857143</ele><time>2026-04-10T05:46:03.004Z</time></trkpt><trkpt lat="45.878182227872024" lon="11.600243511289621"><ele>1092.5714285714287</ele><time>2026-04-10T05:46:08.004Z</time></trkpt><trkpt lat="45.87810751313803" lon="11.600279699407404"><ele>1094.2857142857144</ele><time>2026-04-10T05:46:14.004Z</time></trkpt><trkpt lat="45.878047846664174" lon="11.600351348972783"><ele>1096.0</ele><time>2026-04-10T05:46:17.004Z</time></trkpt><trkpt lat="45.87800560631144" lon="11.600422258481386"><ele>1096.0000000000002</ele><time>2026-04-10T05:46:22.004Z</time></trkpt><trkpt lat="45.87796392840516" lon="11.600503656887568"><ele>1096.0</ele><time>2026-04-10T05:46:28.004Z</time></trkpt><trkpt lat="45.877921875764805" lon="11.600581861528218"><ele>1096.0</ele><time>2026-04-10T05:46:34.004Z</time></trkpt><trkpt lat="45.87789431988929" lon="11.600673593640096"><ele>1096.0</ele><time>2026-04-10T05:46:40.004Z</time></trkpt><trkpt lat="45.87788366497683" lon="11.600769004252347"><ele>1096.0</ele><time>2026-04-10T05:46:47.004Z</time></trkpt><trkpt lat="45.87790480776897" lon="11.600879752421658"><ele>1096.0000000000002</ele><time>2026-04-10T05:46:54.004Z</time></trkpt><trkpt lat="45.877889467175805" lon="11.600976150528783"><ele>1096.0</ele><time>2026-04-10T05:47:00.004Z</time></trkpt><trkpt lat="45.87791409198554" lon="11.601082594122373"><ele>1096.4285714285716</ele><time>2026-04-10T05:47:14.005Z</time></trkpt><trkpt lat="45.877889866055476" lon="11.60117756005665"><ele>1096.857142857143</ele><time>2026-04-10T05:47:22.004Z</time></trkpt><trkpt lat="45.87787194013892" lon="11.601272140240976"><ele>1097.2857142857142</ele><time>2026-04-10T05:47:28.005Z</time></trkpt><trkpt lat="45.87781424519226" lon="11.601339949530306"><ele>1097.7142857142858</ele><time>2026-04-10T05:47:37.005Z</time></trkpt><trkpt lat="45.8777705321284" lon="11.601405758005136"><ele>1098.142857142857</ele><time>2026-04-10T05:47:43.005Z</time></trkpt><trkpt lat="45.87773881203415" lon="11.601487946509913"><ele>1098.5714285714287</ele><time>2026-04-10T05:47:51.005Z</time></trkpt><trkpt lat="45.877654177222055" lon="11.601515036036517"><ele>1099.0</ele><time>2026-04-10T05:47:58.005Z</time></trkpt><trkpt lat="45.877595844698945" lon="11.601560886034969"><ele>1099.0</ele><time>2026-04-10T05:48:03.005Z</time></trkpt><trkpt lat="45.87752277155037" lon="11.6016379459016"><ele>1099.0</ele><time>2026-04-10T05:48:19.005Z</time></trkpt><trkpt lat="45.87745910032978" lon="11.601606256352637"><ele>1099.0</ele><time>2026-04-10T05:48:32.005Z</time></trkpt><trkpt lat="45.87738760400155" lon="11.60162230905894"><ele>1099.0</ele><time>2026-04-10T05:49:02.004Z</time></trkpt><trkpt lat="45.87729960690859" lon="11.601636792862946"><ele>1099.0</ele><time>2026-04-10T05:49:21.005Z</time></trkpt><trkpt lat="45.87722557969952" lon="11.601631872777288"><ele>1099.0</ele><time>2026-04-10T05:49:35.006Z</time></trkpt><trkpt lat="45.87723410352771" lon="11.601721806593142"><ele>1099.0</ele><time>2026-04-10T05:50:32.005Z</time></trkpt><trkpt lat="45.87711978774248" lon="11.601729176905968"><ele>1099.0</ele><time>2026-04-10T05:51:57.005Z</time></trkpt><trkpt lat="45.87702344041401" lon="11.601779453823388"><ele>1099.0</ele><time>2026-04-10T05:52:40.005Z</time></trkpt><trkpt lat="45.87706329040178" lon="11.601655499755706"><ele>1099.0</ele><time>2026-04-10T05:54:06.005Z</time></trkpt><trkpt lat="45.877081142776724" lon="11.601745467477384"><ele>1099.0</ele><time>2026-04-10T05:55:06.005Z</time></trkpt><trkpt lat="45.87714521904056" lon="11.601777027893052"><ele>1099.0</ele><time>2026-04-10T05:55:14.005Z</time></trkpt><trkpt lat="45.877211972867684" lon="11.601737094947646"><ele>1099.0</ele><time>2026-04-10T05:55:29.005Z</time></trkpt><trkpt lat="45.877274331861095" lon="11.601780414784686"><ele>1099.0</ele><time>2026-04-10T05:56:03.006Z</time></trkpt><trkpt lat="45.87721520942773" lon="11.601811956460828"><ele>1099.0</ele><time>2026-04-10T05:56:16.006Z</time></trkpt><trkpt lat="45.87727326126133" lon="11.60172572331433"><ele>1099.0</ele><time>2026-04-10T05:57:03.005Z</time></trkpt><trkpt lat="45.877262600334156" lon="11.601815848828716"><ele>1099.0</ele><time>2026-04-10T05:57:45.006Z</time></trkpt><trkpt lat="45.877254660298576" lon="11.601915756639745"><ele>1099.0</ele><time>2026-04-10T05:58:02.006Z</time></trkpt><trkpt lat="45.87730797511291" lon="11.601846064188333"><ele>1099.0</ele><time>2026-04-10T05:59:10.006Z</time></trkpt><trkpt lat="45.87726580398691" lon="11.601763799313243"><ele>1099.0</ele><time>2026-04-10T05:59:32.006Z</time></trkpt><trkpt lat="45.87719960424944" lon="11.601713439525591"><ele>1099.0</ele><time>2026-04-10T06:00:00.006Z</time></trkpt><trkpt lat="45.87713539065676" lon="11.6017313932157"><ele>1099.0</ele><time>2026-04-10T06:00:12.006Z</time></trkpt><trkpt lat="45.877167915647114" lon="11.601632501182312"><ele>1099.0</ele><time>2026-04-10T06:01:06.006Z</time></trkpt><trkpt lat="45.87710454418387" lon="11.601539103317952"><ele>1099.0</ele><time>2026-04-10T06:02:46.006Z</time></trkpt><trkpt lat="45.87704716736103" lon="11.601488959080838"><ele>1099.0</ele><time>2026-04-10T06:02:59.006Z</time></trkpt><trkpt lat="45.87701237360129" lon="11.601574009789587"><ele>1099.0</ele><time>2026-04-10T06:03:25.006Z</time></trkpt><trkpt lat="45.877037455833914" lon="11.601489536942498"><ele>1099.0</ele><time>2026-04-10T06:03:46.006Z</time></trkpt><trkpt lat="45.87701902548024" lon="11.601401076058231"><ele>1099.0</ele><time>2026-04-10T06:04:39.008Z</time></trkpt><trkpt lat="45.877009891663235" lon="11.60130162312783"><ele>1099.0</ele><time>2026-04-10T06:04:50.007Z</time></trkpt><trkpt lat="45.87694040834088" lon="11.60123144832398"><ele>1099.0</ele><time>2026-04-10T06:06:01.007Z</time></trkpt><trkpt lat="45.87692335453502" lon="11.60114192519377"><ele>1099.0</ele><time>2026-04-10T06:07:53.007Z</time></trkpt><trkpt lat="45.87692177840415" lon="11.601250269873526"><ele>1099.0</ele><time>2026-04-10T06:09:29.002Z</time></trkpt><trkpt lat="45.876884341007774" lon="11.601172353338548"><ele>1099.0</ele><time>2026-04-10T06:09:53Z</time></trkpt><trkpt lat="45.87683186553081" lon="11.601101059749988"><ele>1099.0</ele><time>2026-04-10T06:10:01Z</time></trkpt><trkpt lat="45.8767911308524" lon="11.601205854255275"><ele>1099.0</ele><time>2026-04-10T06:11:08.001Z</time></trkpt><trkpt lat="45.87683302788913" lon="11.601131126275636"><ele>1099.0</ele><time>2026-04-10T06:12:21Z</time></trkpt><trkpt lat="45.87678610569587" lon="11.601062460945132"><ele>1099.0</ele><time>2026-04-10T06:12:42.001Z</time></trkpt><trkpt lat="45.876779789742365" lon="11.600961515337302"><ele>1099.0</ele><time>2026-04-10T06:13:15.001Z</time></trkpt><trkpt lat="45.87674522320837" lon="11.601040460554948"><ele>1099.0</ele><time>2026-04-10T06:13:45.001Z</time></trkpt><trkpt lat="45.87675553486575" lon="11.600947469374262"><ele>1099.0</ele><time>2026-04-10T06:14:47.001Z</time></trkpt><trkpt lat="45.876838179350514" lon="11.600932730376256"><ele>1103.1666666666665</ele><time>2026-04-10T06:14:57.001Z</time></trkpt><trkpt lat="45.87680848023044" lon="11.601015244606128"><ele>1107.3333333333333</ele><time>2026-04-10T06:15:31.001Z</time></trkpt><trkpt lat="45.87675701168146" lon="11.600927246508842"><ele>1111.5</ele><time>2026-04-10T06:16:49Z</time></trkpt><trkpt lat="45.87667676363435" lon="11.600918021208784"><ele>1115.6666666666667</ele><time>2026-04-10T06:17:12Z</time></trkpt><trkpt lat="45.876613802126066" lon="11.60079847875881"><ele>1119.8333333333335</ele><time>2026-04-10T06:18:17.999Z</time></trkpt><trkpt lat="45.876541705809714" lon="11.600825741489913"><ele>1124.0</ele><time>2026-04-10T06:18:33.999Z</time></trkpt><trkpt lat="45.876608732141364" lon="11.600795740253561"><ele>1126.6000000000001</ele><time>2026-04-10T06:18:46.001Z</time></trkpt><trkpt lat="45.876648263597886" lon="11.600686434072019"><ele>1129.2</ele><time>2026-04-10T06:19:25.001Z</time></trkpt><trkpt lat="45.876588428495886" lon="11.600799598832001"><ele>1131.8000000000002</ele><time>2026-04-10T06:19:50.001Z</time></trkpt><trkpt lat="45.87657861742835" lon="11.600692358232068"><ele>1134.4</ele><time>2026-04-10T06:21:13Z</time></trkpt><trkpt lat="45.87652190383306" lon="11.60056331761495"><ele>1137.0</ele><time>2026-04-10T06:22:01Z</time></trkpt><trkpt lat="45.876574458585054" lon="11.600679690859662"><ele>1137.0</ele><time>2026-04-10T06:22:06Z</time></trkpt><trkpt lat="45.876591237253244" lon="11.600779039184786"><ele>1137.0</ele><time>2026-04-10T06:22:24Z</time></trkpt><trkpt lat="45.87668567853981" lon="11.600839568447388"><ele>1137.0</ele><time>2026-04-10T06:24:21.999Z</time></trkpt><trkpt lat="45.87662718247261" lon="11.60077759796346"><ele>1137.0</ele><time>2026-04-10T06:24:44.999Z</time></trkpt><trkpt lat="45.87664623206193" lon="11.600591920511942"><ele>1137.0</ele><time>2026-04-10T06:25:29Z</time></trkpt><trkpt lat="45.876697309049995" lon="11.600676381461783"><ele>1137.0</ele><time>2026-04-10T06:26:38.999Z</time></trkpt><trkpt lat="45.87659397596312" lon="11.600605629916345"><ele>1137.0</ele><time>2026-04-10T06:26:52.999Z</time></trkpt><trkpt lat="45.87662140531698" lon="11.600691980185934"><ele>1137.0</ele><time>2026-04-10T06:27:06Z</time></trkpt><trkpt lat="45.87655603707348" lon="11.60067832565269"><ele>1137.0</ele><time>2026-04-10T06:28:18Z</time></trkpt><trkpt lat="45.876518548278234" lon="11.600769722233622"><ele>1137.0</ele><time>2026-04-10T06:28:32.999Z</time></trkpt><trkpt lat="45.87648394640882" lon="11.600846096137717"><ele>1137.0</ele><time>2026-04-10T06:29:07Z</time></trkpt><trkpt lat="45.87651144300793" lon="11.600937457091627"><ele>1137.0</ele><time>2026-04-10T06:29:24.999Z</time></trkpt><trkpt lat="45.87662287184304" lon="11.60099217963087"><ele>1137.0</ele><time>2026-04-10T06:30:14.999Z</time></trkpt><trkpt lat="45.87658491797396" lon="11.601070967231173"><ele>1137.0</ele><time>2026-04-10T06:31:32Z</time></trkpt><trkpt lat="45.87658239485716" lon="11.601165424232779"><ele>1137.0</ele><time>2026-04-10T06:31:48Z</time></trkpt><trkpt lat="45.87662230145773" lon="11.601237210054466"><ele>1137.0</ele><time>2026-04-10T06:32:39.999Z</time></trkpt><trkpt lat="45.876694591993754" lon="11.601296307358503"><ele>1137.0</ele><time>2026-04-10T06:32:57.999Z</time></trkpt><trkpt lat="45.8766257433081" lon="11.601294466044026"><ele>1134.6666666666667</ele><time>2026-04-10T06:33:19.999Z</time></trkpt><trkpt lat="45.87669802362182" lon="11.601289550505287"><ele>1132.3333333333333</ele><time>2026-04-10T06:34:03.999Z</time></trkpt><trkpt lat="45.87683086223969" lon="11.601298982589507"><ele>1130.0</ele><time>2026-04-10T06:34:56.995Z</time></trkpt><trkpt lat="45.87677387190026" lon="11.601340328222106"><ele>1127.6666666666665</ele><time>2026-04-10T06:35:21.992Z</time></trkpt><trkpt lat="45.87669854908742" lon="11.601331665773607"><ele>1125.3333333333333</ele><time>2026-04-10T06:35:28.992Z</time></trkpt><trkpt lat="45.876638154311884" lon="11.601362527276818"><ele>1123.0</ele><time>2026-04-10T06:35:33.992Z</time></trkpt><trkpt lat="45.876693557398156" lon="11.601318811097673"><ele>1123.0</ele><time>2026-04-10T06:36:28.992Z</time></trkpt><trkpt lat="45.87660888126859" lon="11.601436875031682"><ele>1123.0</ele><time>2026-04-10T06:40:59.991Z</time></trkpt><trkpt lat="45.87657168543347" lon="11.60153980914994"><ele>1123.0</ele><time>2026-04-10T06:41:24.99Z</time></trkpt><trkpt lat="45.876625392459076" lon="11.601590098276885"><ele>1123.0</ele><time>2026-04-10T06:41:30.99Z</time></trkpt><trkpt lat="45.87665546557024" lon="11.601499746226384"><ele>1123.0</ele><time>2026-04-10T06:42:07.992Z</time></trkpt><trkpt lat="45.87671946603364" lon="11.601495321233172"><ele>1123.0</ele><time>2026-04-10T06:42:18.991Z</time></trkpt><trkpt lat="45.876681434652404" lon="11.60158214605746"><ele>1123.0</ele><time>2026-04-10T06:42:34.991Z</time></trkpt><trkpt lat="45.87667979693297" lon="11.601674010442448"><ele>1123.0</ele><time>2026-04-10T06:42:47.991Z</time></trkpt><trkpt lat="45.87671643597999" lon="11.601763080539579"><ele>1123.0</ele><time>2026-04-10T06:43:01.991Z</time></trkpt><trkpt lat="45.876805981874185" lon="11.60171910116732"><ele>1123.0</ele><time>2026-04-10T06:43:23.991Z</time></trkpt><trkpt lat="45.87677427052807" lon="11.601812751978906"><ele>1123.0</ele><time>2026-04-10T06:43:44.99Z</time></trkpt><trkpt lat="45.87675221292091" lon="11.60197710154383"><ele>1123.0</ele><time>2026-04-10T06:45:04.991Z</time></trkpt><trkpt lat="45.876804725171795" lon="11.602035480917255"><ele>1116.2857142857142</ele><time>2026-04-10T06:45:33.99Z</time></trkpt><trkpt lat="45.87683062775966" lon="11.60211965837215"><ele>1109.5714285714284</ele><time>2026-04-10T06:46:54.991Z</time></trkpt><trkpt lat="45.876918211907224" lon="11.602136083364892"><ele>1102.857142857143</ele><time>2026-04-10T06:47:02.991Z</time></trkpt><trkpt lat="45.87685065539876" lon="11.602129680318503"><ele>1096.142857142857</ele><time>2026-04-10T06:47:24.99Z</time></trkpt><trkpt lat="45.8768287876432" lon="11.602219289817597"><ele>1089.4285714285716</ele><time>2026-04-10T06:47:45.99Z</time></trkpt><trkpt lat="45.87691287919534" lon="11.60221880917715"><ele>1082.7142857142858</ele><time>2026-04-10T06:47:57.99Z</time></trkpt><trkpt lat="45.87691790989144" lon="11.602121719880722"><ele>1076.0</ele><time>2026-04-10T06:48:33.991Z</time></trkpt><trkpt lat="45.87686788045634" lon="11.60217701331535"><ele>1076.0</ele><time>2026-04-10T06:48:49.991Z</time></trkpt><trkpt lat="45.87687577233243" lon="11.602295885256996"><ele>1076.0</ele><time>2026-04-10T06:50:27.991Z</time></trkpt><trkpt lat="45.8768240599773" lon="11.602349767756165"><ele>1076.0</ele><time>2026-04-10T06:51:03.99Z</time></trkpt><trkpt lat="45.876785694758446" lon="11.602431850000562"><ele>1076.0</ele><time>2026-04-10T06:51:27.99Z</time></trkpt><trkpt lat="45.87684710193388" lon="11.602487014917456"><ele>1076.0</ele><time>2026-04-10T06:51:40.99Z</time></trkpt><trkpt lat="45.87695169940295" lon="11.602507657050936"><ele>1076.0</ele><time>2026-04-10T06:52:43.99Z</time></trkpt><trkpt lat="45.87690493514637" lon="11.602431633367534"><ele>1076.0</ele><time>2026-04-10T06:52:59.99Z</time></trkpt><trkpt lat="45.87690562359334" lon="11.602529726628083"><ele>1076.0</ele><time>2026-04-10T06:53:22.989Z</time></trkpt><trkpt lat="45.87694232785006" lon="11.602428345750674"><ele>1076.0</ele><time>2026-04-10T06:54:00.989Z</time></trkpt><trkpt lat="45.8768932929879" lon="11.602522825130354"><ele>1076.0</ele><time>2026-04-10T06:54:59.99Z</time></trkpt><trkpt lat="45.87701371579443" lon="11.602405189376638"><ele>1076.0</ele><time>2026-04-10T06:55:21.989Z</time></trkpt><trkpt lat="45.876931563175596" lon="11.602425903065784"><ele>1076.0</ele><time>2026-04-10T06:55:58.986Z</time></trkpt><trkpt lat="45.87690950191855" lon="11.60252288998707"><ele>1076.0</ele><time>2026-04-10T06:56:21.985Z</time></trkpt><trkpt lat="45.87690728899966" lon="11.602614957525757"><ele>1076.0</ele><time>2026-04-10T06:56:31.986Z</time></trkpt><trkpt lat="45.876947510648044" lon="11.602688033534546"><ele>1076.0</ele><time>2026-04-10T06:56:56.985Z</time></trkpt><trkpt lat="45.87698662659116" lon="11.602759710143973"><ele>1076.0</ele><time>2026-04-10T06:57:09.985Z</time></trkpt><trkpt lat="45.87695158524504" lon="11.602841505222331"><ele>1076.0</ele><time>2026-04-10T06:57:47.984Z</time></trkpt><trkpt lat="45.87693190183163" lon="11.60296357803187"><ele>1076.0</ele><time>2026-04-10T06:58:19.984Z</time></trkpt><trkpt lat="45.87693438963439" lon="11.603064289537805"><ele>1076.0</ele><time>2026-04-10T06:58:47.985Z</time></trkpt><trkpt lat="45.87695250801407" lon="11.60315290154621"><ele>1076.0</ele><time>2026-04-10T06:58:56.985Z</time></trkpt><trkpt lat="45.876940636600416" lon="11.603034220583561"><ele>1076.0</ele><time>2026-04-10T06:59:51.984Z</time></trkpt><trkpt lat="45.87689485932285" lon="11.602943682194882"><ele>1076.0</ele><time>2026-04-10T07:00:12.984Z</time></trkpt><trkpt lat="45.876849648062425" lon="11.60287501389643"><ele>1076.0</ele><time>2026-04-10T07:00:51.984Z</time></trkpt><trkpt lat="45.87677246327201" lon="11.602723741434241"><ele>1076.0</ele><time>2026-04-10T07:02:43.984Z</time></trkpt><trkpt lat="45.87688271275155" lon="11.602692439648665"><ele>1076.0</ele><time>2026-04-10T07:07:27.984Z</time></trkpt><trkpt lat="45.87681883097004" lon="11.602744228781406"><ele>1076.0</ele><time>2026-04-10T07:08:31.983Z</time></trkpt><trkpt lat="45.87676174267762" lon="11.60278637024214"><ele>1076.0</ele><time>2026-04-10T07:08:37.983Z</time></trkpt><trkpt lat="45.87682070538726" lon="11.60273810981106"><ele>1076.0</ele><time>2026-04-10T07:08:56.982Z</time></trkpt><trkpt lat="45.876835875652404" lon="11.602638432481962"><ele>1076.0</ele><time>2026-04-10T07:09:58.982Z</time></trkpt><trkpt lat="45.87691492054686" lon="11.602662470694186"><ele>1076.0</ele><time>2026-04-10T07:10:36.982Z</time></trkpt><trkpt lat="45.876978074195804" lon="11.60263940480629"><ele>1076.0</ele><time>2026-04-10T07:10:49.982Z</time></trkpt><trkpt lat="45.877020463559724" lon="11.602564565233175"><ele>1076.0</ele><time>2026-04-10T07:11:04.982Z</time></trkpt><trkpt lat="45.877038177808586" lon="11.602476790991025"><ele>1076.0</ele><time>2026-04-10T07:11:25.983Z</time></trkpt><trkpt lat="45.877100578569824" lon="11.602397486771675"><ele>1076.0</ele><time>2026-04-10T07:14:33.981Z</time></trkpt><trkpt lat="45.877037845124555" lon="11.602377684968454"><ele>1076.0</ele><time>2026-04-10T07:16:00.981Z</time></trkpt><trkpt lat="45.87710269677275" lon="11.602427525242037"><ele>1076.0</ele><time>2026-04-10T07:16:29.981Z</time></trkpt><trkpt lat="45.87708448876361" lon="11.6023033740284"><ele>1076.0</ele><time>2026-04-10T07:17:03.981Z</time></trkpt><trkpt lat="45.8771259437539" lon="11.602218260890584"><ele>1076.0</ele><time>2026-04-10T07:17:24.982Z</time></trkpt><trkpt lat="45.877195025442376" lon="11.602210122864339"><ele>1076.0</ele><time>2026-04-10T07:18:16.981Z</time></trkpt><trkpt lat="45.87722801238332" lon="11.602126728735012"><ele>1076.0</ele><time>2026-04-10T07:18:27.981Z</time></trkpt><trkpt lat="45.87713466119047" lon="11.602095162065911"><ele>1076.0</ele><time>2026-04-10T07:19:41.981Z</time></trkpt><trkpt lat="45.877172505470995" lon="11.602180475149021"><ele>1076.0</ele><time>2026-04-10T07:20:11.981Z</time></trkpt><trkpt lat="45.8772408924234" lon="11.602206411359875"><ele>1076.0</ele><time>2026-04-10T07:20:34.98Z</time></trkpt><trkpt lat="45.87718946595635" lon="11.602125595568419"><ele>1076.0</ele><time>2026-04-10T07:20:58.98Z</time></trkpt><trkpt lat="45.87719708906719" lon="11.602228841225077"><ele>1076.0</ele><time>2026-04-10T07:21:59.981Z</time></trkpt><trkpt lat="45.87725707027959" lon="11.602188470786949"><ele>1076.0</ele><time>2026-04-10T07:22:11.981Z</time></trkpt><trkpt lat="45.87730848945977" lon="11.602111532188657"><ele>1076.0</ele><time>2026-04-10T07:22:18.981Z</time></trkpt><trkpt lat="45.87729398860285" lon="11.602021213137823"><ele>1076.0</ele><time>2026-04-10T07:22:36.981Z</time></trkpt><trkpt lat="45.87722218977444" lon="11.60201188233015"><ele>1076.0</ele><time>2026-04-10T07:22:51.981Z</time></trkpt><trkpt lat="45.87725254564749" lon="11.601899842329685"><ele>1076.0</ele><time>2026-04-10T07:23:36.98Z</time></trkpt><trkpt lat="45.87722506413127" lon="11.601982139709246"><ele>1076.0</ele><time>2026-04-10T07:25:32.979Z</time></trkpt><trkpt lat="45.87724347695684" lon="11.601869757613738"><ele>1076.0</ele><time>2026-04-10T07:26:35.979Z</time></trkpt><trkpt lat="45.87720415384722" lon="11.601953356486502"><ele>1076.0</ele><time>2026-04-10T07:26:50.979Z</time></trkpt><trkpt lat="45.87730782660076" lon="11.602011628067673"><ele>1076.0</ele><time>2026-04-10T07:27:28.979Z</time></trkpt><trkpt lat="45.877280949111665" lon="11.602102986604017"><ele>1076.0</ele><time>2026-04-10T07:27:40.979Z</time></trkpt><trkpt lat="45.87734995628684" lon="11.6021162742276"><ele>1076.0</ele><time>2026-04-10T07:29:03.979Z</time></trkpt><trkpt lat="45.87728333092287" lon="11.602132550348578"><ele>1076.0</ele><time>2026-04-10T07:29:42.978Z</time></trkpt><trkpt lat="45.877354338547974" lon="11.602103765835741"><ele>1076.0</ele><time>2026-04-10T07:30:01.98Z</time></trkpt><trkpt lat="45.87741792556948" lon="11.602122289570907"><ele>1076.0</ele><time>2026-04-10T07:30:57.979Z</time></trkpt><trkpt lat="45.87741102129236" lon="11.602229123319777"><ele>1076.0</ele><time>2026-04-10T07:32:37.978Z</time></trkpt><trkpt lat="45.87750388246492" lon="11.602236793603183"><ele>1076.0</ele><time>2026-04-10T07:33:45.977Z</time></trkpt><trkpt lat="45.87759937554292" lon="11.6023145227711"><ele>1076.0</ele><time>2026-04-10T07:34:00.977Z</time></trkpt><trkpt lat="45.87751367126614" lon="11.602337067608634"><ele>1076.0</ele><time>2026-04-10T07:34:13.979Z</time></trkpt><trkpt lat="45.87745415433869" lon="11.602234985303813"><ele>1076.0</ele><time>2026-04-10T07:34:22.979Z</time></trkpt><trkpt lat="45.87739735884976" lon="11.602156295934586"><ele>1076.0</ele><time>2026-04-10T07:34:47.978Z</time></trkpt><trkpt lat="45.8773868139383" lon="11.60235300866861"><ele>1076.0</ele><time>2026-04-10T07:35:50.977Z</time></trkpt><trkpt lat="45.87735036124616" lon="11.60227651502873"><ele>1076.0</ele><time>2026-04-10T07:38:11.979Z</time></trkpt><trkpt lat="45.8774411250224" lon="11.602149056366782"><ele>1076.0</ele><time>2026-04-10T07:40:33.98Z</time></trkpt><trkpt lat="45.87751700979652" lon="11.602162393726156"><ele>1076.0</ele><time>2026-04-10T07:40:53.98Z</time></trkpt><trkpt lat="45.877453634697225" lon="11.60217158101406"><ele>1076.0</ele><time>2026-04-10T07:41:09.979Z</time></trkpt><trkpt lat="45.87739412453426" lon="11.602131870734317"><ele>1076.0</ele><time>2026-04-10T07:43:05.979Z</time></trkpt><trkpt lat="45.87732549156712" lon="11.602205331831453"><ele>1076.0</ele><time>2026-04-10T07:45:00.979Z</time></trkpt><trkpt lat="45.87739143651671" lon="11.602225842413183"><ele>1076.0</ele><time>2026-04-10T07:45:39.978Z</time></trkpt><trkpt lat="45.8773560457025" lon="11.602131795480574"><ele>1076.0</ele><time>2026-04-10T07:46:22.978Z</time></trkpt><trkpt lat="45.87736601347743" lon="11.60226158974851"><ele>1076.0</ele><time>2026-04-10T07:46:49.979Z</time></trkpt><trkpt lat="45.877260462869124" lon="11.60235160946766"><ele>1076.0</ele><time>2026-04-10T07:47:26.978Z</time></trkpt><trkpt lat="45.877244936366104" lon="11.602259300506782"><ele>1076.0</ele><time>2026-04-10T07:49:09.978Z</time></trkpt><trkpt lat="45.87735961122134" lon="11.602171131269913"><ele>1076.0</ele><time>2026-04-10T07:52:00.976Z</time></trkpt><trkpt lat="45.877308842581435" lon="11.60223259041608"><ele>1076.0</ele><time>2026-04-10T07:52:40.976Z</time></trkpt><trkpt lat="45.8772449659229" lon="11.602270163243324"><ele>1076.0</ele><time>2026-04-10T07:53:16.977Z</time></trkpt><trkpt lat="45.87720170530656" lon="11.602349450496614"><ele>1076.0</ele><time>2026-04-10T07:53:18.978Z</time></trkpt><trkpt lat="45.877254068690505" lon="11.602427486530587"><ele>1076.0</ele><time>2026-04-10T07:54:29.977Z</time></trkpt><trkpt lat="45.87726330473189" lon="11.60233350613557"><ele>1076.0</ele><time>2026-04-10T07:54:40.976Z</time></trkpt><trkpt lat="45.87724116200794" lon="11.602226785814326"><ele>1076.0</ele><time>2026-04-10T07:55:16.977Z</time></trkpt><trkpt lat="45.87722575353319" lon="11.602331445591474"><ele>1076.0</ele><time>2026-04-10T07:56:04.976Z</time></trkpt><trkpt lat="45.87719511311804" lon="11.602246952817504"><ele>1076.0</ele><time>2026-04-10T07:56:44.975Z</time></trkpt><trkpt lat="45.87726037093641" lon="11.602218512111186"><ele>1076.0</ele><time>2026-04-10T07:58:20.978Z</time></trkpt><trkpt lat="45.8773114090756" lon="11.602149129108305"><ele>1076.0</ele><time>2026-04-10T07:59:23.979Z</time></trkpt><trkpt lat="45.87724751733335" lon="11.60211446132018"><ele>1076.0</ele><time>2026-04-10T08:00:01.978Z</time></trkpt><trkpt lat="45.87722723325765" lon="11.602201073957923"><ele>1076.0</ele><time>2026-04-10T08:00:10.978Z</time></trkpt><trkpt lat="45.87717867394192" lon="11.602134189570247"><ele>1076.0</ele><time>2026-04-10T08:02:31.977Z</time></trkpt><trkpt lat="45.87718388491055" lon="11.602230795553666"><ele>1076.0</ele><time>2026-04-10T08:03:21.976Z</time></trkpt><trkpt lat="45.877124135981354" lon="11.602198337021294"><ele>1076.0</ele><time>2026-04-10T08:03:28.976Z</time></trkpt><trkpt lat="45.87719385164415" lon="11.6022240487561"><ele>1076.0</ele><time>2026-04-10T08:03:50.977Z</time></trkpt><trkpt lat="45.877258242245546" lon="11.602261630948597"><ele>1076.0</ele><time>2026-04-10T08:04:01.977Z</time></trkpt><trkpt lat="45.87722217878463" lon="11.602340263041432"><ele>1076.0</ele><time>2026-04-10T08:06:06.977Z</time></trkpt><trkpt lat="45.877220811927494" lon="11.602209266426623"><ele>1076.0</ele><time>2026-04-10T08:07:18.976Z</time></trkpt><trkpt lat="45.8772722428979" lon="11.602264267349174"><ele>1076.0</ele><time>2026-04-10T08:07:45.976Z</time></trkpt><trkpt lat="45.87735419449757" lon="11.602242941864597"><ele>1076.0</ele><time>2026-04-10T08:08:53.976Z</time></trkpt><trkpt lat="45.87744561882181" lon="11.60226737523268"><ele>1076.0</ele><time>2026-04-10T08:10:04.977Z</time></trkpt><trkpt lat="45.87737295811995" lon="11.602266370352556"><ele>1076.0</ele><time>2026-04-10T08:10:34.976Z</time></trkpt><trkpt lat="45.87731113532723" lon="11.602283684938179"><ele>1076.0</ele><time>2026-04-10T08:10:40.976Z</time></trkpt><trkpt lat="45.87724023957393" lon="11.602337447866338"><ele>1076.0</ele><time>2026-04-10T08:11:22.976Z</time></trkpt><trkpt lat="45.87717468035805" lon="11.602333897009563"><ele>1076.0</ele><time>2026-04-10T08:12:19.977Z</time></trkpt><trkpt lat="45.87712245496414" lon="11.60228030818477"><ele>1076.0</ele><time>2026-04-10T08:13:23.976Z</time></trkpt><trkpt lat="45.877160025858146" lon="11.602364151452496"><ele>1076.0</ele><time>2026-04-10T08:14:08.976Z</time></trkpt><trkpt lat="45.877159041979816" lon="11.602456964166642"><ele>1076.0</ele><time>2026-04-10T08:14:47.976Z</time></trkpt><trkpt lat="45.87709415264855" lon="11.602471786665866"><ele>1076.0</ele><time>2026-04-10T08:15:51.975Z</time></trkpt><trkpt lat="45.87713505453132" lon="11.602391121658847"><ele>1076.0</ele><time>2026-04-10T08:17:14.975Z</time></trkpt><trkpt lat="45.87719655550439" lon="11.602362904734555"><ele>1076.0</ele><time>2026-04-10T08:17:46.977Z</time></trkpt><trkpt lat="45.87725655770806" lon="11.602246530951719"><ele>1076.0</ele><time>2026-04-10T08:18:27.978Z</time></trkpt><trkpt lat="45.87725155558009" lon="11.602337937722634"><ele>1076.0</ele><time>2026-04-10T08:18:37.978Z</time></trkpt><trkpt lat="45.87717959254288" lon="11.602407915795883"><ele>1076.0</ele><time>2026-04-10T08:19:17.978Z</time></trkpt><trkpt lat="45.877182489758965" lon="11.602524087529485"><ele>1076.0</ele><time>2026-04-10T08:19:55.977Z</time></trkpt><trkpt lat="45.877234214921174" lon="11.602459935818121"><ele>1076.0</ele><time>2026-04-10T08:20:56.978Z</time></trkpt><trkpt lat="45.87720744568458" lon="11.60254626974258"><ele>1076.0</ele><time>2026-04-10T08:21:56.977Z</time></trkpt><trkpt lat="45.87728084874697" lon="11.602617537346543"><ele>1076.0</ele><time>2026-04-10T08:23:49.977Z</time></trkpt><trkpt lat="45.87720961482676" lon="11.602571520066745"><ele>1076.0</ele><time>2026-04-10T08:24:22.976Z</time></trkpt><trkpt lat="45.877254742626334" lon="11.602670845575597"><ele>1076.0</ele><time>2026-04-10T08:26:15.976Z</time></trkpt><trkpt lat="45.87726739068556" lon="11.6027701127742"><ele>1076.0</ele><time>2026-04-10T08:29:25.976Z</time></trkpt><trkpt lat="45.87732674218299" lon="11.602835262242824"><ele>1076.0</ele><time>2026-04-10T08:32:52.976Z</time></trkpt><trkpt lat="45.87732119558641" lon="11.602737219005112"><ele>1076.0</ele><time>2026-04-10T08:33:25.977Z</time></trkpt><trkpt lat="45.87725855261988" lon="11.602750512151763"><ele>1076.0</ele><time>2026-04-10T08:33:39.977Z</time></trkpt><trkpt lat="45.877238151422716" lon="11.6026639858077"><ele>1076.0</ele><time>2026-04-10T08:33:57.977Z</time></trkpt><trkpt lat="45.87720754819352" lon="11.602560670317805"><ele>1076.0</ele><time>2026-04-10T08:34:15.976Z</time></trkpt><trkpt lat="45.8772771975482" lon="11.602578294125994"><ele>1076.0</ele><time>2026-04-10T08:35:16.976Z</time></trkpt><trkpt lat="45.87723025091006" lon="11.602485856544607"><ele>1076.0</ele><time>2026-04-10T08:36:07.975Z</time></trkpt><trkpt lat="45.87725125926269" lon="11.602573231722793"><ele>1076.0</ele><time>2026-04-10T08:37:15.976Z</time></trkpt><trkpt lat="45.87722052402943" lon="11.602475043348432"><ele>1076.0</ele><time>2026-04-10T08:37:57.978Z</time></trkpt><trkpt lat="45.8772613726501" lon="11.602372205059424"><ele>1076.0</ele><time>2026-04-10T08:40:33.978Z</time></trkpt><trkpt lat="45.87732816491038" lon="11.602303609869189"><ele>1076.0</ele><time>2026-04-10T08:42:52.977Z</time></trkpt><trkpt lat="45.87728308495502" lon="11.60224001937863"><ele>1076.0</ele><time>2026-04-10T08:43:19.977Z</time></trkpt><trkpt lat="45.877310495485986" lon="11.602152808402531"><ele>1076.0</ele><time>2026-04-10T08:43:34.979Z</time></trkpt><trkpt lat="45.87733253707773" lon="11.602238625821276"><ele>1076.0</ele><time>2026-04-10T08:44:11.978Z</time></trkpt><trkpt lat="45.877394945028655" lon="11.602275859643981"><ele>1076.0</ele><time>2026-04-10T08:44:24.978Z</time></trkpt><trkpt lat="45.87746232850636" lon="11.602278160651833"><ele>1076.0</ele><time>2026-04-10T08:44:38.978Z</time></trkpt><trkpt lat="45.87752452586307" lon="11.602207633090353"><ele>1076.0</ele><time>2026-04-10T08:44:48.978Z</time></trkpt><trkpt lat="45.87759420726538" lon="11.602206279003827"><ele>1076.0</ele><time>2026-04-10T08:44:58.978Z</time></trkpt><trkpt lat="45.87765916647" lon="11.602205515495823"><ele>1076.0</ele><time>2026-04-10T08:45:05.978Z</time></trkpt><trkpt lat="45.87772622755385" lon="11.602146694978858"><ele>1076.0</ele><time>2026-04-10T08:45:16.978Z</time></trkpt><trkpt lat="45.87778875576306" lon="11.602102413360608"><ele>1076.0</ele><time>2026-04-10T08:45:24.977Z</time></trkpt><trkpt lat="45.87785836942286" lon="11.60202174900494"><ele>1075.6666666666667</ele><time>2026-04-10T08:45:32.977Z</time></trkpt><trkpt lat="45.877900689414936" lon="11.601950414968089"><ele>1075.3333333333335</ele><time>2026-04-10T08:45:38.978Z</time></trkpt><trkpt lat="45.87794678374645" lon="11.601864959034598"><ele>1075.0</ele><time>2026-04-10T08:45:46.978Z</time></trkpt><trkpt lat="45.877937287622395" lon="11.60173657426496"><ele>1074.6666666666667</ele><time>2026-04-10T08:46:00.978Z</time></trkpt><trkpt lat="45.87797318833238" lon="11.601657049706354"><ele>1074.3333333333333</ele><time>2026-04-10T08:46:18.978Z</time></trkpt><trkpt lat="45.8780133497806" lon="11.601578802620429"><ele>1074.0</ele><time>2026-04-10T08:46:26.978Z</time></trkpt><trkpt lat="45.87803628432891" lon="11.601442339703643"><ele>1073.9999999999998</ele><time>2026-04-10T08:46:52.978Z</time></trkpt><trkpt lat="45.878009216836325" lon="11.60135494707913"><ele>1074.0</ele><time>2026-04-10T08:47:11.977Z</time></trkpt><trkpt lat="45.8780088533775" lon="11.601261595276924"><ele>1074.0</ele><time>2026-04-10T08:47:23.977Z</time></trkpt><trkpt lat="45.877988783586204" lon="11.601171359616531"><ele>1074.0</ele><time>2026-04-10T08:47:30.977Z</time></trkpt><trkpt lat="45.87800599071475" lon="11.601082844237347"><ele>1074.0</ele><time>2026-04-10T08:47:37.977Z</time></trkpt><trkpt lat="45.878018366780175" lon="11.60098914037043"><ele>1073.9999999999998</ele><time>2026-04-10T08:47:44.978Z</time></trkpt><trkpt lat="45.87798745611922" lon="11.600900595556658"><ele>1074.0</ele><time>2026-04-10T08:47:55.978Z</time></trkpt><trkpt lat="45.87797073013198" lon="11.600812356018519"><ele>1077.6666666666667</ele><time>2026-04-10T08:48:09.978Z</time></trkpt><trkpt lat="45.877976255991506" lon="11.60070092133891"><ele>1081.3333333333333</ele><time>2026-04-10T08:48:26.978Z</time></trkpt><trkpt lat="45.877910350684175" lon="11.600588778724005"><ele>1085.0</ele><time>2026-04-10T08:48:41.978Z</time></trkpt><trkpt lat="45.87791342603472" lon="11.600478388411226"><ele>1088.6666666666665</ele><time>2026-04-10T08:48:52.978Z</time></trkpt><trkpt lat="45.87786447005238" lon="11.600417769633601"><ele>1092.3333333333333</ele><time>2026-04-10T08:49:04.977Z</time></trkpt><trkpt lat="45.87790771202818" lon="11.600349802348783"><ele>1096.0</ele><time>2026-04-10T08:49:45.977Z</time></trkpt><trkpt lat="45.877980500232965" lon="11.600357642510746"><ele>1096.0000000000002</ele><time>2026-04-10T08:50:19.978Z</time></trkpt><trkpt lat="45.87804087548116" lon="11.600404247742317"><ele>1096.0</ele><time>2026-04-10T08:50:40.977Z</time></trkpt><trkpt lat="45.87809936472766" lon="11.60036290035392"><ele>1096.0</ele><time>2026-04-10T08:50:54.977Z</time></trkpt><trkpt lat="45.87817387845098" lon="11.600334363908233"><ele>1096.0</ele><time>2026-04-10T08:51:04.977Z</time></trkpt><trkpt lat="45.87823648433782" lon="11.60039731860311"><ele>1096.0</ele><time>2026-04-10T08:51:10.977Z</time></trkpt><trkpt lat="45.87830808737044" lon="11.600424706439608"><ele>1096.0000000000002</ele><time>2026-04-10T08:51:16.977Z</time></trkpt><trkpt lat="45.87837425609675" lon="11.600435560039118"><ele>1096.0</ele><time>2026-04-10T08:51:21.977Z</time></trkpt><trkpt lat="45.87844517086905" lon="11.600459553328408"><ele>1094.2857142857144</ele><time>2026-04-10T08:51:30.977Z</time></trkpt><trkpt lat="45.87852238441865" lon="11.600480494702415"><ele>1092.5714285714287</ele><time>2026-04-10T08:51:37.977Z</time></trkpt><trkpt lat="45.87858563242868" lon="11.600496796977026"><ele>1090.857142857143</ele><time>2026-04-10T08:51:42.977Z</time></trkpt><trkpt lat="45.87864508207388" lon="11.600535005612409"><ele>1089.1428571428573</ele><time>2026-04-10T08:51:48.976Z</time></trkpt><trkpt lat="45.878717445227856" lon="11.600548709751159"><ele>1087.4285714285716</ele><time>2026-04-10T08:51:53.978Z</time></trkpt><trkpt lat="45.87877158181139" lon="11.600611624144763"><ele>1085.7142857142858</ele><time>2026-04-10T08:51:58.977Z</time></trkpt><trkpt lat="45.878832664456894" lon="11.60065448592059"><ele>1084.0</ele><time>2026-04-10T08:52:04.977Z</time></trkpt><trkpt lat="45.87889494513284" lon="11.60067737154753"><ele>1084.0</ele><time>2026-04-10T08:52:11.978Z</time></trkpt><trkpt lat="45.87896498434478" lon="11.600694082320514"><ele>1084.0</ele><time>2026-04-10T08:52:18.978Z</time></trkpt><trkpt lat="45.879029595065376" lon="11.6007219056124"><ele>1084.0</ele><time>2026-04-10T08:52:24.978Z</time></trkpt><trkpt lat="45.87909961658594" lon="11.600757266939375"><ele>1084.0</ele><time>2026-04-10T08:52:29.978Z</time></trkpt><trkpt lat="45.87916756324509" lon="11.600760740501402"><ele>1084.0</ele><time>2026-04-10T08:52:34.978Z</time></trkpt><trkpt lat="45.87924575006558" lon="11.600783190287629"><ele>1084.0</ele><time>2026-04-10T08:52:40.978Z</time></trkpt><trkpt lat="45.87931856609758" lon="11.600803457675955"><ele>1084.0</ele><time>2026-04-10T08:52:45.977Z</time></trkpt><trkpt lat="45.879395659024745" lon="11.600811635193896"><ele>1083.7142857142858</ele><time>2026-04-10T08:52:50.977Z</time></trkpt><trkpt lat="45.879465350081105" lon="11.600824192403218"><ele>1083.4285714285716</ele><time>2026-04-10T08:52:55.977Z</time></trkpt><trkpt lat="45.87953996840237" lon="11.60082796077064"><ele>1083.1428571428573</ele><time>2026-04-10T08:53:00.977Z</time></trkpt><trkpt lat="45.879603432795754" lon="11.600850115046455"><ele>1082.857142857143</ele><time>2026-04-10T08:53:04.977Z</time></trkpt><trkpt lat="45.87967658961852" lon="11.60086267611615"><ele>1082.5714285714287</ele><time>2026-04-10T08:53:09.977Z</time></trkpt><trkpt lat="45.87975011272366" lon="11.600857729840826"><ele>1082.2857142857144</ele><time>2026-04-10T08:53:14.977Z</time></trkpt><trkpt lat="45.879810120987656" lon="11.600804900751394"><ele>1082.0</ele><time>2026-04-10T08:53:19.977Z</time></trkpt><trkpt lat="45.879878877828595" lon="11.6007747123618"><ele>1082.0000000000002</ele><time>2026-04-10T08:53:24.977Z</time></trkpt><trkpt lat="45.87993847687418" lon="11.60074004591487"><ele>1082.0</ele><time>2026-04-10T08:53:29.977Z</time></trkpt><trkpt lat="45.88000545909408" lon="11.600750774017206"><ele>1082.0</ele><time>2026-04-10T08:53:34.977Z</time></trkpt><trkpt lat="45.880068674939224" lon="11.60074196341732"><ele>1082.0</ele><time>2026-04-10T08:53:39.977Z</time></trkpt><trkpt lat="45.88012776876522" lon="11.600779006932004"><ele>1082.0</ele><time>2026-04-10T08:53:44.977Z</time></trkpt><trkpt lat="45.88019422942398" lon="11.60080610543927"><ele>1082.0000000000002</ele><time>2026-04-10T08:53:49.977Z</time></trkpt><trkpt lat="45.8802605608934" lon="11.60084069741778"><ele>1082.0</ele><time>2026-04-10T08:53:54.977Z</time></trkpt><trkpt lat="45.88033035206248" lon="11.600857057768113"><ele>1081.2857142857144</ele><time>2026-04-10T08:53:59.977Z</time></trkpt><trkpt lat="45.88040004242761" lon="11.600863105206365"><ele>1080.5714285714287</ele><time>2026-04-10T08:54:04.977Z</time></trkpt><trkpt lat="45.88047424839474" lon="11.600865508938872"><ele>1079.857142857143</ele><time>2026-04-10T08:54:09.977Z</time></trkpt><trkpt lat="45.88053699516944" lon="11.600830183451528"><ele>1079.1428571428573</ele><time>2026-04-10T08:54:14.977Z</time></trkpt><trkpt lat="45.88060581078711" lon="11.600833268757622"><ele>1078.4285714285716</ele><time>2026-04-10T08:54:19.977Z</time></trkpt><trkpt lat="45.88067667865472" lon="11.600837327540722"><ele>1077.7142857142858</ele><time>2026-04-10T08:54:25.977Z</time></trkpt><trkpt lat="45.88073623521358" lon="11.600901885001225"><ele>1077.0</ele><time>2026-04-10T08:54:30.977Z</time></trkpt><trkpt lat="45.8807764445914" lon="11.600971676217819"><ele>1077.0</ele><time>2026-04-10T08:54:34.977Z</time></trkpt><trkpt lat="45.88083225907413" lon="11.601043096769947"><ele>1077.0</ele><time>2026-04-10T08:54:39.977Z</time></trkpt><trkpt lat="45.88087960624329" lon="11.601119109216887"><ele>1077.0</ele><time>2026-04-10T08:54:44.977Z</time></trkpt><trkpt lat="45.88092860259327" lon="11.601193472812039"><ele>1077.0</ele><time>2026-04-10T08:54:49.977Z</time></trkpt><trkpt lat="45.880970153673935" lon="11.601268367085064"><ele>1077.0</ele><time>2026-04-10T08:54:54.977Z</time></trkpt><trkpt lat="45.88102111529788" lon="11.601342853003278"><ele>1077.0</ele><time>2026-04-10T08:54:59.977Z</time></trkpt><trkpt lat="45.88107933589689" lon="11.601405398018395"><ele>1077.0</ele><time>2026-04-10T08:55:04.977Z</time></trkpt><trkpt lat="45.88113749508676" lon="11.601464508640664"><ele>1075.2857142857142</ele><time>2026-04-10T08:55:09.977Z</time></trkpt><trkpt lat="45.88119172450291" lon="11.60152689562345"><ele>1073.5714285714287</ele><time>2026-04-10T08:55:14.977Z</time></trkpt><trkpt lat="45.88124952525956" lon="11.601580476536684"><ele>1071.857142857143</ele><time>2026-04-10T08:55:19.977Z</time></trkpt><trkpt lat="45.8813103864811" lon="11.601637977281028"><ele>1070.142857142857</ele><time>2026-04-10T08:55:24.976Z</time></trkpt><trkpt lat="45.8813741436174" lon="11.601686975475708"><ele>1068.4285714285713</ele><time>2026-04-10T08:55:29.976Z</time></trkpt><trkpt lat="45.881441583531476" lon="11.601724830265113"><ele>1066.7142857142858</ele><time>2026-04-10T08:55:34.976Z</time></trkpt><trkpt lat="45.8815121718091" lon="11.601748221759797"><ele>1065.0</ele><time>2026-04-10T08:55:39.976Z</time></trkpt><trkpt lat="45.88157325347603" lon="11.601771948317671"><ele>1065.0</ele><time>2026-04-10T08:55:43.976Z</time></trkpt><trkpt lat="45.88164296486938" lon="11.60178510254875"><ele>1065.0</ele><time>2026-04-10T08:55:48.976Z</time></trkpt><trkpt lat="45.88171385156955" lon="11.601798046881557"><ele>1065.0</ele><time>2026-04-10T08:55:53.976Z</time></trkpt><trkpt lat="45.88178290046207" lon="11.601820845853934"><ele>1065.0</ele><time>2026-04-10T08:55:58.976Z</time></trkpt><trkpt lat="45.881854061510225" lon="11.601844418182841"><ele>1065.0</ele><time>2026-04-10T08:56:03.976Z</time></trkpt><trkpt lat="45.88192496092345" lon="11.601849628259584"><ele>1065.0</ele><time>2026-04-10T08:56:08.977Z</time></trkpt><trkpt lat="45.88199548649422" lon="11.601868627119396"><ele>1065.0</ele><time>2026-04-10T08:56:13.978Z</time></trkpt><trkpt lat="45.882071807892025" lon="11.601881311888267"><ele>1064.142857142857</ele><time>2026-04-10T08:56:18.977Z</time></trkpt><trkpt lat="45.882142143880756" lon="11.601885340019475"><ele>1063.2857142857142</ele><time>2026-04-10T08:56:23.977Z</time></trkpt><trkpt lat="45.882207000541165" lon="11.601867732327523"><ele>1062.4285714285713</ele><time>2026-04-10T08:56:28.977Z</time></trkpt><trkpt lat="45.882278540915756" lon="11.60187718044931"><ele>1061.5714285714284</ele><time>2026-04-10T08:56:33.977Z</time></trkpt><trkpt lat="45.88235289862366" lon="11.601868945244346"><ele>1060.7142857142856</ele><time>2026-04-10T08:56:38.977Z</time></trkpt><trkpt lat="45.88242722057344" lon="11.601862700705542"><ele>1059.857142857143</ele><time>2026-04-10T08:56:43.977Z</time></trkpt><trkpt lat="45.88249622454177" lon="11.601849253609608"><ele>1059.0</ele><time>2026-04-10T08:56:48.977Z</time></trkpt><trkpt lat="45.88257095773752" lon="11.60183972458195"><ele>1058.5714285714284</ele><time>2026-04-10T08:56:54.977Z</time></trkpt><trkpt lat="45.88263748301012" lon="11.601853938763082"><ele>1058.142857142857</ele><time>2026-04-10T08:56:59.977Z</time></trkpt><trkpt lat="45.88270041927964" lon="11.601889588472913"><ele>1057.7142857142858</ele><time>2026-04-10T08:57:04.977Z</time></trkpt><trkpt lat="45.88277199059413" lon="11.601916596722882"><ele>1057.2857142857142</ele><time>2026-04-10T08:57:09.977Z</time></trkpt><trkpt lat="45.882823173502544" lon="11.601971667207994"><ele>1056.857142857143</ele><time>2026-04-10T08:57:13.977Z</time></trkpt><trkpt lat="45.882891565106625" lon="11.60202537733228"><ele>1056.4285714285713</ele><time>2026-04-10T08:57:18.977Z</time></trkpt><trkpt lat="45.88295194827931" lon="11.602081912958806"><ele>1056.0</ele><time>2026-04-10T08:57:23.977Z</time></trkpt><trkpt lat="45.88302985961694" lon="11.602108087841636"><ele>1049.0</ele><time>2026-04-10T08:57:28.976Z</time></trkpt><trkpt lat="45.88310337119341" lon="11.602092967819416"><ele>1049.0</ele><time>2026-04-10T08:57:33.977Z</time></trkpt><trkpt lat="45.883179403579014" lon="11.602103608845079"><ele>1049.0</ele><time>2026-04-10T08:57:38.977Z</time></trkpt><trkpt lat="45.88321952795611" lon="11.602180938589703"><ele>1049.0</ele><time>2026-04-10T08:57:43.977Z</time></trkpt><trkpt lat="45.88321952795611" lon="11.602180938589703"><ele>1049.0</ele><time>2026-04-10T08:57:43.977Z</time></trkpt></trkseg></trk></gpx>